sensor_id;sensor_type;location;lat;lon;timestamp;P1;durP1;ratioP1;P2;durP2;ratioP2
23866;SDS011;12114;53.404;-1.502;2024-03-02T00:01:13;21.02;;;12.18;;
23866;SDS011;12114;53.404;-1.502;2024-03-02T00:03:57;23.73;;;12.60;;
23866;SDS011;12114;53.404;-1.502;2024-03-02T00:06:42;20.60;;;12.13;;
23866;SDS011;12114;53.404;-1.502;2024-03-02T00:09:27;24.10;;;12.48;;
23866;SDS011;12114;53.404;-1.502;2024-03-02T00:12:11;19.92;;;11.65;;
23866;SDS011;12114;53.404;-1.502;2024-03-02T00:14:59;21.17;;;12.60;;
23866;SDS011;12114;53.404;-1.502;2024-03-02T00:17:46;19.10;;;11.70;;
23866;SDS011;12114;53.404;-1.502;2024-03-02T00:20:36;18.92;;;12.30;;
23866;SDS011;12114;53.404;-1.502;2024-03-02T00:23:20;20.45;;;11.95;;
23866;SDS011;12114;53.404;-1.502;2024-03-02T00:26:05;18.70;;;11.68;;
23866;SDS011;12114;53.404;-1.502;2024-03-02T00:28:50;22.10;;;11.85;;
23866;SDS011;12114;53.404;-1.502;2024-03-02T00:31:40;18.77;;;10.82;;
23866;SDS011;12114;53.404;-1.502;2024-03-02T00:34:25;22.58;;;10.45;;
23866;SDS011;12114;53.404;-1.502;2024-03-02T00:37:09;20.17;;;10.57;;
23866;SDS011;12114;53.404;-1.502;2024-03-02T00:39:53;19.02;;;9.80;;
23866;SDS011;12114;53.404;-1.502;2024-03-02T00:42:37;15.07;;;9.38;;
23866;SDS011;12114;53.404;-1.502;2024-03-02T00:45:21;21.48;;;11.25;;
23866;SDS011;12114;53.404;-1.502;2024-03-02T00:48:06;16.98;;;10.48;;
23866;SDS011;12114;53.404;-1.502;2024-03-02T00:50:52;15.30;;;10.32;;
23866;SDS011;12114;53.404;-1.502;2024-03-02T00:53:36;19.05;;;10.75;;
23866;SDS011;12114;53.404;-1.502;2024-03-02T00:56:20;16.88;;;11.00;;
23866;SDS011;12114;53.404;-1.502;2024-03-02T00:59:05;16.42;;;11.00;;
23866;SDS011;12114;53.404;-1.502;2024-03-02T01:01:49;17.38;;;10.95;;
23866;SDS011;12114;53.404;-1.502;2024-03-02T01:04:33;17.58;;;10.95;;
23866;SDS011;12114;53.404;-1.502;2024-03-02T01:07:17;17.38;;;10.63;;
23866;SDS011;12114;53.404;-1.502;2024-03-02T01:10:02;19.05;;;10.82;;
23866;SDS011;12114;53.404;-1.502;2024-03-02T01:12:46;18.58;;;10.52;;
23866;SDS011;12114;53.404;-1.502;2024-03-02T01:15:30;18.00;;;10.45;;
23866;SDS011;12114;53.404;-1.502;2024-03-02T01:18:14;15.55;;;10.25;;
23866;SDS011;12114;53.404;-1.502;2024-03-02T01:21:01;19.15;;;11.27;;
23866;SDS011;12114;53.404;-1.502;2024-03-02T01:23:46;20.92;;;11.82;;
23866;SDS011;12114;53.404;-1.502;2024-03-02T01:26:30;19.88;;;12.00;;
23866;SDS011;12114;53.404;-1.502;2024-03-02T01:29:14;19.40;;;12.38;;
23866;SDS011;12114;53.404;-1.502;2024-03-02T01:31:58;21.30;;;11.90;;
23866;SDS011;12114;53.404;-1.502;2024-03-02T01:34:43;21.65;;;12.48;;
23866;SDS011;12114;53.404;-1.502;2024-03-02T01:37:27;21.73;;;13.25;;
23866;SDS011;12114;53.404;-1.502;2024-03-02T01:40:11;20.88;;;12.05;;
23866;SDS011;12114;53.404;-1.502;2024-03-02T01:42:55;20.23;;;12.20;;
23866;SDS011;12114;53.404;-1.502;2024-03-02T01:45:41;19.13;;;10.98;;
23866;SDS011;12114;53.404;-1.502;2024-03-02T01:48:25;20.80;;;11.32;;
23866;SDS011;12114;53.404;-1.502;2024-03-02T01:51:09;19.20;;;11.23;;
23866;SDS011;12114;53.404;-1.502;2024-03-02T01:53:54;21.02;;;11.90;;
23866;SDS011;12114;53.404;-1.502;2024-03-02T01:56:38;18.00;;;11.15;;
23866;SDS011;12114;53.404;-1.502;2024-03-02T01:59:22;16.83;;;10.95;;
23866;SDS011;12114;53.404;-1.502;2024-03-02T02:02:06;18.65;;;11.05;;
23866;SDS011;12114;53.404;-1.502;2024-03-02T02:04:51;19.95;;;11.40;;
23866;SDS011;12114;53.404;-1.502;2024-03-02T02:07:35;19.42;;;11.70;;
23866;SDS011;12114;53.404;-1.502;2024-03-02T02:10:19;20.58;;;11.93;;
23866;SDS011;12114;53.404;-1.502;2024-03-02T02:13:03;22.38;;;12.73;;
23866;SDS011;12114;53.404;-1.502;2024-03-02T02:15:47;20.20;;;11.93;;
23866;SDS011;12114;53.404;-1.502;2024-03-02T02:18:31;20.05;;;12.38;;
23866;SDS011;12114;53.404;-1.502;2024-03-02T02:21:16;19.77;;;12.93;;
23866;SDS011;12114;53.404;-1.502;2024-03-02T02:24:00;20.48;;;12.93;;
23866;SDS011;12114;53.404;-1.502;2024-03-02T02:26:47;23.65;;;12.75;;
23866;SDS011;12114;53.404;-1.502;2024-03-02T02:29:31;19.95;;;12.95;;
23866;SDS011;12114;53.404;-1.502;2024-03-02T02:32:15;19.48;;;13.02;;
23866;SDS011;12114;53.404;-1.502;2024-03-02T02:34:58;20.42;;;13.13;;
23866;SDS011;12114;53.404;-1.502;2024-03-02T02:37:43;22.15;;;13.40;;
23866;SDS011;12114;53.404;-1.502;2024-03-02T02:43:15;27.10;;;13.70;;
23866;SDS011;12114;53.404;-1.502;2024-03-02T02:45:59;24.92;;;14.70;;
23866;SDS011;12114;53.404;-1.502;2024-03-02T02:48:43;22.55;;;14.25;;
23866;SDS011;12114;53.404;-1.502;2024-03-02T02:51:28;25.05;;;14.00;;
23866;SDS011;12114;53.404;-1.502;2024-03-02T02:54:12;25.90;;;15.85;;
23866;SDS011;12114;53.404;-1.502;2024-03-02T02:56:56;23.80;;;15.68;;
23866;SDS011;12114;53.404;-1.502;2024-03-02T02:59:40;18.92;;;13.48;;
23866;SDS011;12114;53.404;-1.502;2024-03-02T03:02:24;21.33;;;14.35;;
23866;SDS011;12114;53.404;-1.502;2024-03-02T03:05:11;21.95;;;15.73;;
23866;SDS011;12114;53.404;-1.502;2024-03-02T03:07:56;25.00;;;15.00;;
23866;SDS011;12114;53.404;-1.502;2024-03-02T03:10:41;25.52;;;15.45;;
23866;SDS011;12114;53.404;-1.502;2024-03-02T03:13:25;1528.68;;;136.68;;
23866;SDS011;12114;53.404;-1.502;2024-03-02T03:16:09;29.73;;;16.10;;
23866;SDS011;12114;53.404;-1.502;2024-03-02T03:18:53;26.83;;;17.02;;
23866;SDS011;12114;53.404;-1.502;2024-03-02T03:21:37;35.15;;;20.80;;
23866;SDS011;12114;53.404;-1.502;2024-03-02T03:24:22;26.75;;;16.25;;
23866;SDS011;12114;53.404;-1.502;2024-03-02T03:27:06;22.55;;;15.82;;
23866;SDS011;12114;53.404;-1.502;2024-03-02T03:29:50;24.98;;;16.63;;
23866;SDS011;12114;53.404;-1.502;2024-03-02T03:32:34;26.63;;;16.20;;
23866;SDS011;12114;53.404;-1.502;2024-03-02T03:35:18;24.92;;;15.52;;
23866;SDS011;12114;53.404;-1.502;2024-03-02T03:38:02;24.17;;;16.33;;
23866;SDS011;12114;53.404;-1.502;2024-03-02T03:40:47;28.25;;;17.58;;
23866;SDS011;12114;53.404;-1.502;2024-03-02T03:43:31;27.98;;;17.80;;
23866;SDS011;12114;53.404;-1.502;2024-03-02T03:46:15;27.23;;;18.25;;
23866;SDS011;12114;53.404;-1.502;2024-03-02T03:48:59;29.10;;;18.05;;
23866;SDS011;12114;53.404;-1.502;2024-03-02T03:51:43;28.52;;;18.42;;
23866;SDS011;12114;53.404;-1.502;2024-03-02T03:54:27;30.13;;;19.73;;
23866;SDS011;12114;53.404;-1.502;2024-03-02T03:57:12;29.85;;;20.20;;
23866;SDS011;12114;53.404;-1.502;2024-03-02T03:59:56;27.85;;;19.48;;
23866;SDS011;12114;53.404;-1.502;2024-03-02T04:02:40;31.65;;;19.77;;
23866;SDS011;12114;53.404;-1.502;2024-03-02T04:05:24;35.72;;;21.83;;
23866;SDS011;12114;53.404;-1.502;2024-03-02T04:08:08;30.10;;;20.45;;
23866;SDS011;12114;53.404;-1.502;2024-03-02T04:10:52;35.22;;;20.83;;
23866;SDS011;12114;53.404;-1.502;2024-03-02T04:13:36;307.88;;;35.70;;
23866;SDS011;12114;53.404;-1.502;2024-03-02T04:16:20;32.83;;;19.85;;
23866;SDS011;12114;53.404;-1.502;2024-03-02T04:19:04;37.83;;;21.70;;
23866;SDS011;12114;53.404;-1.502;2024-03-02T04:21:49;34.60;;;21.63;;
23866;SDS011;12114;53.404;-1.502;2024-03-02T04:24:33;35.45;;;21.77;;
23866;SDS011;12114;53.404;-1.502;2024-03-02T04:27:17;32.20;;;20.58;;
23866;SDS011;12114;53.404;-1.502;2024-03-02T04:30:01;30.52;;;20.13;;
23866;SDS011;12114;53.404;-1.502;2024-03-02T04:32:44;31.52;;;21.50;;
23866;SDS011;12114;53.404;-1.502;2024-03-02T04:35:30;33.80;;;21.38;;
23866;SDS011;12114;53.404;-1.502;2024-03-02T04:38:14;32.28;;;20.30;;
23866;SDS011;12114;53.404;-1.502;2024-03-02T04:40:58;37.38;;;21.77;;
23866;SDS011;12114;53.404;-1.502;2024-03-02T04:43:42;48.63;;;21.85;;
23866;SDS011;12114;53.404;-1.502;2024-03-02T04:46:26;31.02;;;22.15;;
23866;SDS011;12114;53.404;-1.502;2024-03-02T04:49:10;35.28;;;22.77;;
23866;SDS011;12114;53.404;-1.502;2024-03-02T04:51:54;39.70;;;22.88;;
23866;SDS011;12114;53.404;-1.502;2024-03-02T04:54:38;34.80;;;24.17;;
23866;SDS011;12114;53.404;-1.502;2024-03-02T04:57:42;39.33;;;25.08;;
23866;SDS011;12114;53.404;-1.502;2024-03-02T05:00:27;36.80;;;19.37;;
23866;SDS011;12114;53.404;-1.502;2024-03-02T05:03:11;43.33;;;26.25;;
23866;SDS011;12114;53.404;-1.502;2024-03-02T05:05:55;38.47;;;26.48;;
23866;SDS011;12114;53.404;-1.502;2024-03-02T05:08:40;45.72;;;26.42;;
23866;SDS011;12114;53.404;-1.502;2024-03-02T05:11:23;44.08;;;27.40;;
23866;SDS011;12114;53.404;-1.502;2024-03-02T05:14:23;43.22;;;27.95;;
23866;SDS011;12114;53.404;-1.502;2024-03-02T05:17:07;47.05;;;28.73;;
23866;SDS011;12114;53.404;-1.502;2024-03-02T05:19:51;49.15;;;29.58;;
23866;SDS011;12114;53.404;-1.502;2024-03-02T05:22:38;47.53;;;29.40;;
23866;SDS011;12114;53.404;-1.502;2024-03-02T05:25:23;57.80;;;32.53;;
23866;SDS011;12114;53.404;-1.502;2024-03-02T05:28:07;55.72;;;31.52;;
23866;SDS011;12114;53.404;-1.502;2024-03-02T05:30:51;51.90;;;32.10;;
23866;SDS011;12114;53.404;-1.502;2024-03-02T05:33:36;51.45;;;30.52;;
23866;SDS011;12114;53.404;-1.502;2024-03-02T05:36:21;51.92;;;31.42;;
23866;SDS011;12114;53.404;-1.502;2024-03-02T05:39:05;57.47;;;32.97;;
23866;SDS011;12114;53.404;-1.502;2024-03-02T05:41:52;56.72;;;32.78;;
23866;SDS011;12114;53.404;-1.502;2024-03-02T05:44:36;62.65;;;33.42;;
23866;SDS011;12114;53.404;-1.502;2024-03-02T05:47:20;52.47;;;32.78;;
23866;SDS011;12114;53.404;-1.502;2024-03-02T05:50:04;56.28;;;32.95;;
23866;SDS011;12114;53.404;-1.502;2024-03-02T05:52:50;57.40;;;34.60;;
23866;SDS011;12114;53.404;-1.502;2024-03-02T05:55:34;60.70;;;33.40;;
23866;SDS011;12114;53.404;-1.502;2024-03-02T05:58:18;61.38;;;33.30;;
23866;SDS011;12114;53.404;-1.502;2024-03-02T06:01:21;64.80;;;32.60;;
23866;SDS011;12114;53.404;-1.502;2024-03-02T06:04:11;64.28;;;32.28;;
23866;SDS011;12114;53.404;-1.502;2024-03-02T06:06:58;63.33;;;31.55;;
23866;SDS011;12114;53.404;-1.502;2024-03-02T06:09:42;58.35;;;31.55;;
23866;SDS011;12114;53.404;-1.502;2024-03-02T06:12:28;57.20;;;32.17;;
23866;SDS011;12114;53.404;-1.502;2024-03-02T06:15:14;63.65;;;33.05;;
23866;SDS011;12114;53.404;-1.502;2024-03-02T06:17:58;62.97;;;32.35;;
23866;SDS011;12114;53.404;-1.502;2024-03-02T06:20:42;55.72;;;32.42;;
23866;SDS011;12114;53.404;-1.502;2024-03-02T06:23:27;60.45;;;32.17;;
23866;SDS011;12114;53.404;-1.502;2024-03-02T06:26:11;69.47;;;32.25;;
23866;SDS011;12114;53.404;-1.502;2024-03-02T06:28:55;58.08;;;32.40;;
23866;SDS011;12114;53.404;-1.502;2024-03-02T06:31:39;61.40;;;32.10;;
23866;SDS011;12114;53.404;-1.502;2024-03-02T06:34:24;60.83;;;30.50;;
23866;SDS011;12114;53.404;-1.502;2024-03-02T06:37:08;55.60;;;30.42;;
23866;SDS011;12114;53.404;-1.502;2024-03-02T06:39:52;50.58;;;25.23;;
23866;SDS011;12114;53.404;-1.502;2024-03-02T06:42:36;45.78;;;24.60;;
23866;SDS011;12114;53.404;-1.502;2024-03-02T06:45:20;50.85;;;25.85;;
23866;SDS011;12114;53.404;-1.502;2024-03-02T06:48:04;48.92;;;25.63;;
23866;SDS011;12114;53.404;-1.502;2024-03-02T06:50:49;53.40;;;27.27;;
23866;SDS011;12114;53.404;-1.502;2024-03-02T06:53:34;132.38;;;31.02;;
23866;SDS011;12114;53.404;-1.502;2024-03-02T06:56:18;52.03;;;28.45;;
23866;SDS011;12114;53.404;-1.502;2024-03-02T06:59:02;62.17;;;29.25;;
23866;SDS011;12114;53.404;-1.502;2024-03-02T07:01:46;52.85;;;25.95;;
23866;SDS011;12114;53.404;-1.502;2024-03-02T07:04:30;58.35;;;29.35;;
23866;SDS011;12114;53.404;-1.502;2024-03-02T07:07:14;57.88;;;25.80;;
23866;SDS011;12114;53.404;-1.502;2024-03-02T07:09:58;56.00;;;26.67;;
23866;SDS011;12114;53.404;-1.502;2024-03-02T07:12:41;52.20;;;26.83;;
23866;SDS011;12114;53.404;-1.502;2024-03-02T07:15:25;55.75;;;28.40;;
23866;SDS011;12114;53.404;-1.502;2024-03-02T07:18:12;58.22;;;27.70;;
23866;SDS011;12114;53.404;-1.502;2024-03-02T07:20:57;55.13;;;27.77;;
23866;SDS011;12114;53.404;-1.502;2024-03-02T07:23:44;52.42;;;25.73;;
23866;SDS011;12114;53.404;-1.502;2024-03-02T07:26:29;52.17;;;27.27;;
23866;SDS011;12114;53.404;-1.502;2024-03-02T07:29:14;55.30;;;26.63;;
23866;SDS011;12114;53.404;-1.502;2024-03-02T07:31:58;50.28;;;25.52;;
23866;SDS011;12114;53.404;-1.502;2024-03-02T07:34:42;50.20;;;26.40;;
23866;SDS011;12114;53.404;-1.502;2024-03-02T07:37:27;51.55;;;25.35;;
23866;SDS011;12114;53.404;-1.502;2024-03-02T07:40:11;47.42;;;25.35;;
23866;SDS011;12114;53.404;-1.502;2024-03-02T07:42:56;45.10;;;24.75;;
23866;SDS011;12114;53.404;-1.502;2024-03-02T07:45:40;54.15;;;24.88;;
23866;SDS011;12114;53.404;-1.502;2024-03-02T07:48:24;47.95;;;24.92;;
23866;SDS011;12114;53.404;-1.502;2024-03-02T07:51:08;51.58;;;27.05;;
23866;SDS011;12114;53.404;-1.502;2024-03-02T07:53:53;51.65;;;25.63;;
23866;SDS011;12114;53.404;-1.502;2024-03-02T07:56:37;45.03;;;24.88;;
23866;SDS011;12114;53.404;-1.502;2024-03-02T07:59:21;41.97;;;23.20;;
23866;SDS011;12114;53.404;-1.502;2024-03-02T08:02:05;44.67;;;25.67;;
23866;SDS011;12114;53.404;-1.502;2024-03-02T08:04:50;27.80;;;16.27;;
23866;SDS011;12114;53.404;-1.502;2024-03-02T08:07:34;36.85;;;21.77;;
23866;SDS011;12114;53.404;-1.502;2024-03-02T08:10:19;33.50;;;20.63;;
23866;SDS011;12114;53.404;-1.502;2024-03-02T08:13:03;34.13;;;21.73;;
23866;SDS011;12114;53.404;-1.502;2024-03-02T08:15:47;37.95;;;20.63;;
23866;SDS011;12114;53.404;-1.502;2024-03-02T08:18:31;34.95;;;20.77;;
23866;SDS011;12114;53.404;-1.502;2024-03-02T08:21:15;39.97;;;23.00;;
23866;SDS011;12114;53.404;-1.502;2024-03-02T08:23:59;44.30;;;24.70;;
23866;SDS011;12114;53.404;-1.502;2024-03-02T08:26:43;46.83;;;25.88;;
23866;SDS011;12114;53.404;-1.502;2024-03-02T08:29:27;42.25;;;24.15;;
23866;SDS011;12114;53.404;-1.502;2024-03-02T08:32:12;42.17;;;25.65;;
23866;SDS011;12114;53.404;-1.502;2024-03-02T08:34:56;39.85;;;23.60;;
23866;SDS011;12114;53.404;-1.502;2024-03-02T08:37:41;39.67;;;23.58;;
23866;SDS011;12114;53.404;-1.502;2024-03-02T08:40:26;38.47;;;22.10;;
23866;SDS011;12114;53.404;-1.502;2024-03-02T08:43:10;43.33;;;25.17;;
23866;SDS011;12114;53.404;-1.502;2024-03-02T08:45:55;40.50;;;24.40;;
23866;SDS011;12114;53.404;-1.502;2024-03-02T08:48:39;39.72;;;23.23;;
23866;SDS011;12114;53.404;-1.502;2024-03-02T08:51:23;38.78;;;21.77;;
23866;SDS011;12114;53.404;-1.502;2024-03-02T08:54:07;35.22;;;20.02;;
23866;SDS011;12114;53.404;-1.502;2024-03-02T08:56:51;35.90;;;21.17;;
23866;SDS011;12114;53.404;-1.502;2024-03-02T08:59:35;34.33;;;21.75;;
23866;SDS011;12114;53.404;-1.502;2024-03-02T09:02:20;36.92;;;23.00;;
23866;SDS011;12114;53.404;-1.502;2024-03-02T09:05:05;31.92;;;20.95;;
23866;SDS011;12114;53.404;-1.502;2024-03-02T09:07:50;35.78;;;23.40;;
23866;SDS011;12114;53.404;-1.502;2024-03-02T09:10:34;34.67;;;21.67;;
23866;SDS011;12114;53.404;-1.502;2024-03-02T09:13:18;30.63;;;19.55;;
23866;SDS011;12114;53.404;-1.502;2024-03-02T09:16:02;27.90;;;15.98;;
23866;SDS011;12114;53.404;-1.502;2024-03-02T09:18:47;28.17;;;15.88;;
23866;SDS011;12114;53.404;-1.502;2024-03-02T09:21:31;23.23;;;15.60;;
23866;SDS011;12114;53.404;-1.502;2024-03-02T09:24:15;29.63;;;15.82;;
23866;SDS011;12114;53.404;-1.502;2024-03-02T09:27:00;22.75;;;14.50;;
23866;SDS011;12114;53.404;-1.502;2024-03-02T09:29:43;20.98;;;14.15;;
23866;SDS011;12114;53.404;-1.502;2024-03-02T09:32:27;22.83;;;13.88;;
23866;SDS011;12114;53.404;-1.502;2024-03-02T09:35:11;22.42;;;14.10;;
23866;SDS011;12114;53.404;-1.502;2024-03-02T09:37:56;23.02;;;13.77;;
23866;SDS011;12114;53.404;-1.502;2024-03-02T09:40:41;23.55;;;12.05;;
23866;SDS011;12114;53.404;-1.502;2024-03-02T09:43:26;28.55;;;13.63;;
23866;SDS011;12114;53.404;-1.502;2024-03-02T09:46:10;23.10;;;13.18;;
23866;SDS011;12114;53.404;-1.502;2024-03-02T09:48:55;25.30;;;12.43;;
23866;SDS011;12114;53.404;-1.502;2024-03-02T09:51:39;24.95;;;12.82;;
23866;SDS011;12114;53.404;-1.502;2024-03-02T09:54:24;22.45;;;11.98;;
23866;SDS011;12114;53.404;-1.502;2024-03-02T09:57:09;28.27;;;12.43;;
23866;SDS011;12114;53.404;-1.502;2024-03-02T09:59:53;21.02;;;11.65;;
23866;SDS011;12114;53.404;-1.502;2024-03-02T10:02:37;22.70;;;10.43;;
23866;SDS011;12114;53.404;-1.502;2024-03-02T10:05:23;16.30;;;9.13;;
23866;SDS011;12114;53.404;-1.502;2024-03-02T10:08:09;16.05;;;9.02;;
23866;SDS011;12114;53.404;-1.502;2024-03-02T10:10:53;18.45;;;8.13;;
23866;SDS011;12114;53.404;-1.502;2024-03-02T10:13:37;15.77;;;8.18;;
23866;SDS011;12114;53.404;-1.502;2024-03-02T10:16:21;18.90;;;7.90;;
23866;SDS011;12114;53.404;-1.502;2024-03-02T10:19:21;17.80;;;7.65;;
23866;SDS011;12114;53.404;-1.502;2024-03-02T10:22:07;14.85;;;7.82;;
23866;SDS011;12114;53.404;-1.502;2024-03-02T10:24:52;15.45;;;7.55;;
23866;SDS011;12114;53.404;-1.502;2024-03-02T10:27:37;18.25;;;7.72;;
23866;SDS011;12114;53.404;-1.502;2024-03-02T10:30:21;16.23;;;7.20;;
23866;SDS011;12114;53.404;-1.502;2024-03-02T10:33:05;16.38;;;6.55;;
23866;SDS011;12114;53.404;-1.502;2024-03-02T10:35:50;15.00;;;7.07;;
23866;SDS011;12114;53.404;-1.502;2024-03-02T10:38:34;18.50;;;7.47;;
23866;SDS011;12114;53.404;-1.502;2024-03-02T10:41:18;17.45;;;8.10;;
23866;SDS011;12114;53.404;-1.502;2024-03-02T10:44:03;18.00;;;6.82;;
23866;SDS011;12114;53.404;-1.502;2024-03-02T10:46:49;17.33;;;6.47;;
23866;SDS011;12114;53.404;-1.502;2024-03-02T10:49:36;15.20;;;7.05;;
23866;SDS011;12114;53.404;-1.502;2024-03-02T10:52:22;13.27;;;6.25;;
23866;SDS011;12114;53.404;-1.502;2024-03-02T10:55:07;15.95;;;7.43;;
23866;SDS011;12114;53.404;-1.502;2024-03-02T10:57:53;16.15;;;6.70;;
23866;SDS011;12114;53.404;-1.502;2024-03-02T11:00:40;27.77;;;7.28;;
23866;SDS011;12114;53.404;-1.502;2024-03-02T11:03:26;19.83;;;7.13;;
23866;SDS011;12114;53.404;-1.502;2024-03-02T11:06:10;14.60;;;6.00;;
23866;SDS011;12114;53.404;-1.502;2024-03-02T11:08:56;15.85;;;5.30;;
23866;SDS011;12114;53.404;-1.502;2024-03-02T11:11:48;12.88;;;4.22;;
23866;SDS011;12114;53.404;-1.502;2024-03-02T11:14:42;12.90;;;5.70;;
23866;SDS011;12114;53.404;-1.502;2024-03-02T11:17:29;15.75;;;6.35;;
23866;SDS011;12114;53.404;-1.502;2024-03-02T11:20:14;15.65;;;5.18;;
23866;SDS011;12114;53.404;-1.502;2024-03-02T11:23:04;14.53;;;5.37;;
23866;SDS011;12114;53.404;-1.502;2024-03-02T11:25:49;16.48;;;4.50;;
23866;SDS011;12114;53.404;-1.502;2024-03-02T11:28:36;12.40;;;4.03;;
23866;SDS011;12114;53.404;-1.502;2024-03-02T11:31:20;18.48;;;4.32;;
23866;SDS011;12114;53.404;-1.502;2024-03-02T11:34:17;22.60;;;4.50;;
23866;SDS011;12114;53.404;-1.502;2024-03-02T11:37:12;17.80;;;5.05;;
23866;SDS011;12114;53.404;-1.502;2024-03-02T11:39:57;18.25;;;5.20;;
23866;SDS011;12114;53.404;-1.502;2024-03-02T11:42:42;18.20;;;4.90;;
23866;SDS011;12114;53.404;-1.502;2024-03-02T11:48:04;17.33;;;4.72;;
23866;SDS011;12114;53.404;-1.502;2024-03-02T11:50:49;21.92;;;4.78;;
23866;SDS011;12114;53.404;-1.502;2024-03-02T11:53:34;21.40;;;5.22;;
23866;SDS011;12114;53.404;-1.502;2024-03-02T11:56:22;21.35;;;6.10;;
23866;SDS011;12114;53.404;-1.502;2024-03-02T11:59:08;18.25;;;4.70;;
23866;SDS011;12114;53.404;-1.502;2024-03-02T12:01:52;21.50;;;5.30;;
23866;SDS011;12114;53.404;-1.502;2024-03-02T12:04:37;17.85;;;5.05;;
23866;SDS011;12114;53.404;-1.502;2024-03-02T12:07:22;18.65;;;5.15;;
23866;SDS011;12114;53.404;-1.502;2024-03-02T12:10:07;16.88;;;4.97;;
23866;SDS011;12114;53.404;-1.502;2024-03-02T12:12:55;19.40;;;4.90;;
23866;SDS011;12114;53.404;-1.502;2024-03-02T12:15:40;16.63;;;4.30;;
23866;SDS011;12114;53.404;-1.502;2024-03-02T12:18:24;17.98;;;4.20;;
23866;SDS011;12114;53.404;-1.502;2024-03-02T12:21:09;14.65;;;4.32;;
23866;SDS011;12114;53.404;-1.502;2024-03-02T12:23:53;17.08;;;4.15;;
23866;SDS011;12114;53.404;-1.502;2024-03-02T12:26:37;21.65;;;3.72;;
23866;SDS011;12114;53.404;-1.502;2024-03-02T12:29:22;16.13;;;4.30;;
23866;SDS011;12114;53.404;-1.502;2024-03-02T12:32:06;13.25;;;3.60;;
23866;SDS011;12114;53.404;-1.502;2024-03-02T12:34:52;15.48;;;3.80;;
23866;SDS011;12114;53.404;-1.502;2024-03-02T12:37:41;17.17;;;3.38;;
23866;SDS011;12114;53.404;-1.502;2024-03-02T12:40:30;10.68;;;2.70;;
23866;SDS011;12114;53.404;-1.502;2024-03-02T12:43:14;10.73;;;2.53;;
23866;SDS011;12114;53.404;-1.502;2024-03-02T12:45:58;12.57;;;2.60;;
23866;SDS011;12114;53.404;-1.502;2024-03-02T12:48:42;12.55;;;3.33;;
23866;SDS011;12114;53.404;-1.502;2024-03-02T12:51:26;6.68;;;2.00;;
23866;SDS011;12114;53.404;-1.502;2024-03-02T12:54:11;11.43;;;2.30;;
23866;SDS011;12114;53.404;-1.502;2024-03-02T12:56:56;9.02;;;2.45;;
23866;SDS011;12114;53.404;-1.502;2024-03-02T12:59:40;2.95;;;1.27;;
23866;SDS011;12114;53.404;-1.502;2024-03-02T13:02:30;4.13;;;1.80;;
23866;SDS011;12114;53.404;-1.502;2024-03-02T13:05:15;2.37;;;1.10;;
23866;SDS011;12114;53.404;-1.502;2024-03-02T13:07:59;2.95;;;0.90;;
23866;SDS011;12114;53.404;-1.502;2024-03-02T13:10:43;3.45;;;1.13;;
23866;SDS011;12114;53.404;-1.502;2024-03-02T13:13:30;2.47;;;1.00;;
23866;SDS011;12114;53.404;-1.502;2024-03-02T13:16:15;5.32;;;1.27;;
23866;SDS011;12114;53.404;-1.502;2024-03-02T13:19:00;4.40;;;1.02;;
23866;SDS011;12114;53.404;-1.502;2024-03-02T13:21:44;3.47;;;1.30;;
23866;SDS011;12114;53.404;-1.502;2024-03-02T13:24:29;2.92;;;1.20;;
23866;SDS011;12114;53.404;-1.502;2024-03-02T13:27:14;5.10;;;1.60;;
23866;SDS011;12114;53.404;-1.502;2024-03-02T13:30:04;2.90;;;1.40;;
23866;SDS011;12114;53.404;-1.502;2024-03-02T13:32:52;2.90;;;1.48;;
23866;SDS011;12114;53.404;-1.502;2024-03-02T13:35:37;1.70;;;0.90;;
23866;SDS011;12114;53.404;-1.502;2024-03-02T13:38:22;2.40;;;0.82;;
23866;SDS011;12114;53.404;-1.502;2024-03-02T13:41:06;1.85;;;0.70;;
23866;SDS011;12114;53.404;-1.502;2024-03-02T13:43:50;2.75;;;1.40;;
23866;SDS011;12114;53.404;-1.502;2024-03-02T13:46:34;1.40;;;0.77;;
23866;SDS011;12114;53.404;-1.502;2024-03-02T13:49:18;3.20;;;1.00;;
23866;SDS011;12114;53.404;-1.502;2024-03-02T13:52:05;2.10;;;0.80;;
23866;SDS011;12114;53.404;-1.502;2024-03-02T13:55:00;2.60;;;1.20;;
23866;SDS011;12114;53.404;-1.502;2024-03-02T13:57:44;3.67;;;1.30;;
23866;SDS011;12114;53.404;-1.502;2024-03-02T14:00:30;2.67;;;0.98;;
23866;SDS011;12114;53.404;-1.502;2024-03-02T14:03:14;2.20;;;1.30;;
23866;SDS011;12114;53.404;-1.502;2024-03-02T14:05:58;2.53;;;1.00;;
23866;SDS011;12114;53.404;-1.502;2024-03-02T14:08:42;3.03;;;0.80;;
23866;SDS011;12114;53.404;-1.502;2024-03-02T14:14:12;1.92;;;0.60;;
23866;SDS011;12114;53.404;-1.502;2024-03-02T14:16:57;1.92;;;0.80;;
23866;SDS011;12114;53.404;-1.502;2024-03-02T14:19:47;2.83;;;0.90;;
23866;SDS011;12114;53.404;-1.502;2024-03-02T14:22:37;2.38;;;0.73;;
23866;SDS011;12114;53.404;-1.502;2024-03-02T14:25:21;2.05;;;1.00;;
23866;SDS011;12114;53.404;-1.502;2024-03-02T14:28:05;1.85;;;0.90;;
23866;SDS011;12114;53.404;-1.502;2024-03-02T14:30:49;2.25;;;1.20;;
23866;SDS011;12114;53.404;-1.502;2024-03-02T14:33:34;1.33;;;0.90;;
23866;SDS011;12114;53.404;-1.502;2024-03-02T14:36:19;1.90;;;0.70;;
23866;SDS011;12114;53.404;-1.502;2024-03-02T14:39:04;2.22;;;0.70;;
23866;SDS011;12114;53.404;-1.502;2024-03-02T14:41:48;1.65;;;0.50;;
23866;SDS011;12114;53.404;-1.502;2024-03-02T14:44:32;1.30;;;0.82;;
23866;SDS011;12114;53.404;-1.502;2024-03-02T14:47:18;3.92;;;2.50;;
23866;SDS011;12114;53.404;-1.502;2024-03-02T14:50:02;2.47;;;1.10;;
23866;SDS011;12114;53.404;-1.502;2024-03-02T14:52:53;2.60;;;1.10;;
23866;SDS011;12114;53.404;-1.502;2024-03-02T14:55:37;3.47;;;1.40;;
23866;SDS011;12114;53.404;-1.502;2024-03-02T14:58:21;2.28;;;1.42;;
23866;SDS011;12114;53.404;-1.502;2024-03-02T15:01:05;4.53;;;1.52;;
23866;SDS011;12114;53.404;-1.502;2024-03-02T15:03:50;2.20;;;1.00;;
23866;SDS011;12114;53.404;-1.502;2024-03-02T15:06:34;3.30;;;0.87;;
23866;SDS011;12114;53.404;-1.502;2024-03-02T15:09:18;3.33;;;1.35;;
23866;SDS011;12114;53.404;-1.502;2024-03-02T15:12:03;1.03;;;0.90;;
23866;SDS011;12114;53.404;-1.502;2024-03-02T15:14:48;1.20;;;0.93;;
23866;SDS011;12114;53.404;-1.502;2024-03-02T15:17:32;1.05;;;0.95;;
23866;SDS011;12114;53.404;-1.502;2024-03-02T15:20:16;2.40;;;1.58;;
23866;SDS011;12114;53.404;-1.502;2024-03-02T15:23:00;2.70;;;1.25;;
23866;SDS011;12114;53.404;-1.502;2024-03-02T15:25:44;1.42;;;0.90;;
23866;SDS011;12114;53.404;-1.502;2024-03-02T15:28:28;1.73;;;1.10;;
23866;SDS011;12114;53.404;-1.502;2024-03-02T15:31:12;2.10;;;1.20;;
23866;SDS011;12114;53.404;-1.502;2024-03-02T15:33:56;2.25;;;0.95;;
23866;SDS011;12114;53.404;-1.502;2024-03-02T15:36:42;2.88;;;1.10;;
23866;SDS011;12114;53.404;-1.502;2024-03-02T15:39:27;4.90;;;1.75;;
23866;SDS011;12114;53.404;-1.502;2024-03-02T15:42:11;1.90;;;1.27;;
23866;SDS011;12114;53.404;-1.502;2024-03-02T15:44:56;3.13;;;1.60;;
23866;SDS011;12114;53.404;-1.502;2024-03-02T15:47:40;5.68;;;4.07;;
23866;SDS011;12114;53.404;-1.502;2024-03-02T15:50:24;2.85;;;2.45;;
23866;SDS011;12114;53.404;-1.502;2024-03-02T15:53:08;1.95;;;1.25;;
23866;SDS011;12114;53.404;-1.502;2024-03-02T15:55:52;2.63;;;1.52;;
23866;SDS011;12114;53.404;-1.502;2024-03-02T15:58:36;4.00;;;2.60;;
23866;SDS011;12114;53.404;-1.502;2024-03-02T16:01:21;5.55;;;2.85;;
23866;SDS011;12114;53.404;-1.502;2024-03-02T16:04:05;6.45;;;3.85;;
23866;SDS011;12114;53.404;-1.502;2024-03-02T16:06:49;3.17;;;1.88;;